createdAt,value
2022-09-01T00:00:02.119Z,17.50
2022-09-01T00:02:30.531Z,17.50
2022-09-01T00:04:58.959Z,17.50
2022-09-01T00:07:32.806Z,17.50
2022-09-01T00:10:00.642Z,17.40
2022-09-01T00:12:29.039Z,17.40
2022-09-01T00:14:56.020Z,17.30
2022-09-01T00:17:22.949Z,17.30
2022-09-01T00:19:49.725Z,17.30
2022-09-01T00:22:16.684Z,17.30
2022-09-01T00:24:43.470Z,17.20
2022-09-01T00:27:10.282Z,17.20
2022-09-01T00:29:37.111Z,17.20
2022-09-01T00:32:04.877Z,17.10
2022-09-01T00:34:32.038Z,17.10
2022-09-01T00:36:59.122Z,17.10
2022-09-01T00:39:26.169Z,17.10
2022-09-01T00:41:52.931Z,17.00
2022-09-01T00:44:29.717Z,17.00
2022-09-01T00:46:59.367Z,17.00
2022-09-01T00:49:35.358Z,17.00
2022-09-01T00:52:31.473Z,17.00
2022-09-01T00:55:02.526Z,16.90
2022-09-01T00:57:29.568Z,16.90
2022-09-01T01:00:01.871Z,16.90
2022-09-01T01:02:29.319Z,16.90
2022-09-01T01:04:59.579Z,16.90
2022-09-01T01:07:28.456Z,16.90
2022-09-01T01:09:56.060Z,16.90
2022-09-01T01:12:23.825Z,16.90
2022-09-01T01:14:51.060Z,16.90
2022-09-01T01:17:19.903Z,16.90
2022-09-01T01:20:10.257Z,16.90
2022-09-01T01:23:10.156Z,16.80
2022-09-01T01:25:48.611Z,16.80
2022-09-01T01:28:31.047Z,16.80
2022-09-01T01:31:06.280Z,16.80
2022-09-01T01:33:42.861Z,16.80
2022-09-01T01:36:42.165Z,16.80
2022-09-01T01:39:13.125Z,16.70
2022-09-01T01:41:45.186Z,16.70
2022-09-01T01:44:13.462Z,16.70
2022-09-01T01:46:48.097Z,16.70
2022-09-01T01:49:20.202Z,16.70
2022-09-01T01:51:49.102Z,16.70
2022-09-01T01:54:17.354Z,16.70
2022-09-01T01:56:44.180Z,16.60
2022-09-01T01:59:15.406Z,16.70
2022-09-01T02:01:44.178Z,16.60
2022-09-01T02:04:11.576Z,16.70
2022-09-01T02:06:45.866Z,16.60
2022-09-01T02:09:17.920Z,16.60
2022-09-01T02:11:45.681Z,16.60
2022-09-01T02:14:13.690Z,16.60
2022-09-01T02:16:41.503Z,16.60
2022-09-01T02:19:10.550Z,16.60
2022-09-01T02:21:37.257Z,16.60
2022-09-01T02:24:08.422Z,16.60
2022-09-01T02:26:39.552Z,16.50
2022-09-01T02:29:19.070Z,16.50
2022-09-01T02:31:48.443Z,16.50
2022-09-01T02:34:16.020Z,16.50
2022-09-01T02:36:49.079Z,16.50
2022-09-01T02:39:26.470Z,16.50
2022-09-01T02:41:53.977Z,16.40
2022-09-01T02:44:22.276Z,16.40
2022-09-01T02:46:50.449Z,16.40
2022-09-01T02:49:26.449Z,16.30
2022-09-01T02:52:01.287Z,16.30
2022-09-01T02:54:31.449Z,16.30
2022-09-01T02:56:58.743Z,16.30
2022-09-01T02:59:28.835Z,16.20
2022-09-01T03:01:57.288Z,16.20
2022-09-01T03:04:24.886Z,16.20
2022-09-01T03:06:54.906Z,16.10
2022-09-01T03:09:22.739Z,16.10
2022-09-01T03:11:51.375Z,16.10
2022-09-01T03:14:19.715Z,16.10
2022-09-01T03:16:46.834Z,16.10
2022-09-01T03:19:15.122Z,16.10
2022-09-01T03:21:46.064Z,16.10
2022-09-01T03:24:17.906Z,16.10
2022-09-01T03:26:50.094Z,16.10
2022-09-01T03:29:18.189Z,16.10
2022-09-01T03:31:45.156Z,16.00
2022-09-01T03:34:12.577Z,16.00
2022-09-01T03:36:40.020Z,16.00
2022-09-01T03:39:14.590Z,16.00
2022-09-01T03:41:43.597Z,16.00
2022-09-01T03:44:12.079Z,15.90
2022-09-01T03:46:40.484Z,15.90
2022-09-01T03:49:08.046Z,15.90
2022-09-01T03:51:35.267Z,15.90
2022-09-01T03:54:02.050Z,15.80
2022-09-01T03:56:29.767Z,15.80
2022-09-01T03:58:59.353Z,15.80
2022-09-01T04:01:32.806Z,15.80
2022-09-01T04:04:01.398Z,15.70
2022-09-01T04:06:30.446Z,15.70
2022-09-01T04:09:02.762Z,15.70
2022-09-01T04:11:30.821Z,15.70
2022-09-01T04:13:58.074Z,15.60
2022-09-01T04:16:47.525Z,15.60
2022-09-01T04:19:20.287Z,15.60
2022-09-01T04:21:54.270Z,15.50
2022-09-01T04:24:24.468Z,15.50
2022-09-01T04:26:52.779Z,15.50
2022-09-01T04:29:27.691Z,15.50
2022-09-01T04:31:59.206Z,15.40
2022-09-01T04:34:27.070Z,15.40
2022-09-01T04:36:55.507Z,15.40
2022-09-01T04:39:23.078Z,15.40
2022-09-01T04:41:50.599Z,15.30
2022-09-01T04:44:19.098Z,15.30
2022-09-01T04:46:47.942Z,15.30
2022-09-01T04:49:20.058Z,15.30
2022-09-01T04:51:53.347Z,15.20
2022-09-01T04:54:22.702Z,15.20
2022-09-01T04:56:51.140Z,15.20
2022-09-01T04:59:21.667Z,15.20
2022-09-01T05:01:50.731Z,15.20
2022-09-01T05:04:21.362Z,15.20
2022-09-01T05:06:51.094Z,15.20
2022-09-01T05:09:20.284Z,15.20
2022-09-01T05:11:48.575Z,15.20
2022-09-01T05:14:19.008Z,15.10
2022-09-01T05:16:46.464Z,15.20
2022-09-01T05:19:17.596Z,15.10
2022-09-01T05:21:46.819Z,15.20
2022-09-01T05:24:16.612Z,15.20
2022-09-01T05:26:44.277Z,15.20
2022-09-01T05:29:14.011Z,15.20
2022-09-01T05:31:42.018Z,15.20
2022-09-01T05:34:09.781Z,15.20
2022-09-01T05:36:41.868Z,15.30
2022-09-01T05:39:12.137Z,15.30
2022-09-01T05:41:41.109Z,15.30
2022-09-01T05:44:09.543Z,15.30
2022-09-01T05:46:39.722Z,15.30
2022-09-01T05:49:09.293Z,15.30
2022-09-01T05:51:46.358Z,15.40
2022-09-01T05:54:23.319Z,15.40
2022-09-01T05:56:50.358Z,15.40
2022-09-01T05:59:26.266Z,15.40
2022-09-01T06:01:54.872Z,15.40
2022-09-01T06:04:23.095Z,15.40
2022-09-01T06:07:07.755Z,15.40
2022-09-01T06:09:40.596Z,15.40
2022-09-01T06:12:18.470Z,15.50
2022-09-01T06:14:47.514Z,15.50
2022-09-01T06:17:16.702Z,15.50
2022-09-01T06:19:43.951Z,15.50
2022-09-01T06:22:11.576Z,15.60
2022-09-01T06:24:43.621Z,15.60
2022-09-01T06:27:12.591Z,15.60
2022-09-01T06:29:40.037Z,15.70
2022-09-01T06:32:12.555Z,15.70
2022-09-01T06:34:42.733Z,15.80
2022-09-01T06:37:11.075Z,15.80
2022-09-01T06:39:38.217Z,15.90
2022-09-01T06:42:06.371Z,15.90
2022-09-01T06:44:34.114Z,16.00
2022-09-01T06:47:09.388Z,16.00
2022-09-01T06:49:36.637Z,16.10
2022-09-01T06:52:05.018Z,16.10
2022-09-01T06:54:34.270Z,16.20
2022-09-01T06:59:54.675Z,16.30
2022-09-01T07:05:58.870Z,16.50
2022-09-01T07:08:12.374Z,16.60
2022-09-01T07:13:34.857Z,16.70
2022-09-01T07:18:59.815Z,16.90
2022-09-01T07:22:06.806Z,17.00
2022-09-01T07:24:18.149Z,17.10
2022-09-01T07:26:49.524Z,17.20
2022-09-01T07:29:19.886Z,17.60
2022-09-01T07:31:50.179Z,18.90
2022-09-01T07:39:51.699Z,23.00
2022-09-01T07:42:55.814Z,16.40
2022-09-01T07:47:56.744Z,25.90
2022-09-01T07:50:38.718Z,26.70
2022-09-01T07:53:09.338Z,27.20
2022-09-01T07:55:41.362Z,27.80
2022-09-01T07:58:10.663Z,28.30
2022-09-01T08:00:39.757Z,28.80
2022-09-01T08:03:06.718Z,29.20
2022-09-01T08:05:34.070Z,29.50
2022-09-01T08:08:01.521Z,29.80
2022-09-01T08:10:29.685Z,30.10
2022-09-01T08:12:57.342Z,30.20
2022-09-01T08:16:06.412Z,30.20
2022-09-01T08:18:14.559Z,30.10
2022-09-01T08:20:47.494Z,29.90
2022-09-01T08:23:18.611Z,29.80
2022-09-01T08:25:47.137Z,29.70
2022-09-01T08:28:15.777Z,29.70
2022-09-01T08:30:52.199Z,29.60
2022-09-01T08:33:19.918Z,29.50
2022-09-01T08:35:49.414Z,29.40
2022-09-01T08:38:16.262Z,29.40
2022-09-01T08:40:51.554Z,29.30
2022-09-01T08:43:32.755Z,29.30
2022-09-01T08:46:09.601Z,29.40
2022-09-01T08:51:59.050Z,29.40
2022-09-01T08:54:46.867Z,29.50
2022-09-01T08:57:23.470Z,29.70
2022-09-01T08:59:51.808Z,29.90
2022-09-01T09:02:41.420Z,30.00
2022-09-01T09:05:32.138Z,30.20
2022-09-01T09:08:54.173Z,30.30
2022-09-01T09:11:53.863Z,30.40
2022-09-01T09:14:36.637Z,30.50
2022-09-01T09:17:04.384Z,30.60
2022-09-01T09:19:37.637Z,30.70
2022-09-01T09:22:11.385Z,30.80
2022-09-01T09:24:52.863Z,30.90
2022-09-01T09:27:30.022Z,30.90
2022-09-01T09:30:23.978Z,30.90
2022-09-01T09:35:51.137Z,31.00
2022-09-01T09:38:28.454Z,31.00
2022-09-01T09:41:26.137Z,31.10
2022-09-01T09:44:05.839Z,31.10
2022-09-01T09:46:32.637Z,31.20
2022-09-01T09:49:34.804Z,31.20
2022-09-01T09:52:08.719Z,31.30
2022-09-01T09:54:37.341Z,31.40
2022-09-01T09:57:11.700Z,31.50
2022-09-01T09:59:57.833Z,31.50
2022-09-01T10:02:29.028Z,31.50
2022-09-01T10:04:57.219Z,31.40
2022-09-01T10:07:37.030Z,31.30
2022-09-01T10:10:25.896Z,31.30
2022-09-01T10:12:54.128Z,31.40
2022-09-01T10:15:24.883Z,31.30
2022-09-01T10:18:19.574Z,31.40
2022-09-01T10:20:48.627Z,31.30
2022-09-01T10:23:16.715Z,31.40
2022-09-01T10:25:44.516Z,31.50
2022-09-01T10:28:22.255Z,31.50
2022-09-01T10:30:50.835Z,31.70
2022-09-01T10:33:21.783Z,31.70
2022-09-01T10:35:53.312Z,31.70
2022-09-01T10:38:28.822Z,31.80
2022-09-01T10:41:07.944Z,31.90
2022-09-01T10:43:49.020Z,32.10
2022-09-01T10:46:24.424Z,32.20
2022-09-01T10:48:55.748Z,32.40
2022-09-01T10:51:29.064Z,32.50
2022-09-01T10:54:04.010Z,32.70
2022-09-01T10:56:51.521Z,32.80
2022-09-01T10:59:45.021Z,32.90
2022-09-01T11:02:25.804Z,33.10
2022-09-01T11:04:59.675Z,33.10
2022-09-01T11:08:00.324Z,33.20
2022-09-01T11:10:37.138Z,33.30
2022-09-01T11:13:35.304Z,33.50
2022-09-01T11:16:49.635Z,33.50
2022-09-01T11:19:38.024Z,33.50
2022-09-01T11:22:13.667Z,33.50
2022-09-01T11:24:41.310Z,33.70
2022-09-01T11:27:12.259Z,33.70
2022-09-01T11:30:08.605Z,33.80
2022-09-01T11:32:41.649Z,33.80
2022-09-01T11:35:21.433Z,33.90
2022-09-01T11:38:05.807Z,34.00
2022-09-01T11:40:35.754Z,34.10
2022-09-01T11:43:12.636Z,34.10
2022-09-01T11:46:09.908Z,34.10
2022-09-01T11:48:39.506Z,34.20
2022-09-01T11:51:06.385Z,34.30
2022-09-01T11:53:33.229Z,34.30
2022-09-01T11:56:17.397Z,34.40
2022-09-01T11:58:44.633Z,34.50
2022-09-01T12:01:36.466Z,34.50
2022-09-01T12:04:23.135Z,34.40
2022-09-01T12:07:01.882Z,34.30
2022-09-01T12:09:35.892Z,34.30
2022-09-01T12:12:03.572Z,34.30
2022-09-01T12:14:48.888Z,34.40
2022-09-01T12:17:20.582Z,34.50
2022-09-01T12:19:47.661Z,34.50
2022-09-01T12:22:21.655Z,34.60
2022-09-01T12:24:54.045Z,34.60
2022-09-01T12:27:25.391Z,34.50
2022-09-01T12:29:52.543Z,34.70
2022-09-01T12:32:20.335Z,34.70
2022-09-01T12:35:00.132Z,34.80
2022-09-01T12:37:28.099Z,34.70
2022-09-01T12:40:00.224Z,34.80
2022-09-01T12:42:40.888Z,34.80
2022-09-01T12:45:10.730Z,34.90
2022-09-01T12:47:37.696Z,34.90
2022-09-01T12:50:08.887Z,34.80
2022-09-01T12:52:44.795Z,34.80
2022-09-01T12:58:10.149Z,34.90
2022-09-01T13:00:58.656Z,34.90
2022-09-01T13:03:27.701Z,34.90
2022-09-01T13:06:00.127Z,34.90
2022-09-01T13:08:30.447Z,34.90
2022-09-01T13:11:14.311Z,34.90
2022-09-01T13:13:42.892Z,34.80
2022-09-01T13:16:13.956Z,34.80
2022-09-01T13:21:30.395Z,34.70
2022-09-01T13:23:58.086Z,34.70
2022-09-01T13:26:26.386Z,34.80
2022-09-01T13:28:54.070Z,34.80
2022-09-01T13:31:29.195Z,34.80
2022-09-01T13:34:23.131Z,34.80
2022-09-01T13:36:47.107Z,34.80
2022-09-01T13:39:15.813Z,34.70
2022-09-01T13:41:43.146Z,34.70
2022-09-01T13:44:10.529Z,34.80
2022-09-01T13:46:58.998Z,34.80
2022-09-01T13:52:13.143Z,34.90
2022-09-01T13:54:40.148Z,34.80
2022-09-01T13:57:06.919Z,34.70
2022-09-01T13:59:33.706Z,34.50
2022-09-01T14:02:01.742Z,34.50
2022-09-01T14:04:28.962Z,34.50
2022-09-01T14:06:56.135Z,34.40
2022-09-01T14:09:23.162Z,34.40
2022-09-01T14:11:53.915Z,34.40
2022-09-01T14:14:21.104Z,34.20
2022-09-01T14:16:48.798Z,34.00
2022-09-01T14:19:15.893Z,33.80
2022-09-01T14:21:43.149Z,33.80
2022-09-01T14:24:11.370Z,33.70
2022-09-01T14:26:38.226Z,33.70
2022-09-01T14:29:05.042Z,33.70
2022-09-01T14:31:32.091Z,33.60
2022-09-01T14:33:58.867Z,33.60
2022-09-01T14:36:26.928Z,33.50
2022-09-01T14:38:54.694Z,33.60
2022-09-01T14:41:23.959Z,33.50
2022-09-01T14:43:56.754Z,33.40
2022-09-01T14:46:25.549Z,33.30
2022-09-01T14:48:52.534Z,33.20
2022-09-01T14:52:10.157Z,33.20
2022-09-01T14:54:13.882Z,33.10
2022-09-01T14:56:41.892Z,33.00
2022-09-01T14:59:11.630Z,32.90
2022-09-01T15:01:39.734Z,32.80
2022-09-01T15:04:06.559Z,32.90
2022-09-01T15:06:34.103Z,32.80
2022-09-01T15:09:02.291Z,32.80
2022-09-01T15:11:29.277Z,32.80
2022-09-01T15:13:56.318Z,32.80
2022-09-01T15:16:25.752Z,32.70
2022-09-01T15:18:53.900Z,32.70
2022-09-01T15:21:34.082Z,32.70
2022-09-01T15:24:02.122Z,32.70
2022-09-01T15:26:29.344Z,32.50
2022-09-01T15:28:57.280Z,32.40
2022-09-01T15:31:32.960Z,32.40
2022-09-01T15:34:02.927Z,32.40
2022-09-01T15:36:31.814Z,32.40
2022-09-01T15:39:00.509Z,32.20
2022-09-01T15:41:32.743Z,32.10
2022-09-01T15:44:00.075Z,32.00
2022-09-01T15:46:32.927Z,31.90
2022-09-01T15:49:06.457Z,31.80
2022-09-01T15:51:41.249Z,31.60
2022-09-01T15:54:12.151Z,31.50
2022-09-01T15:56:42.471Z,31.40
2022-09-01T15:59:10.041Z,31.30
2022-09-01T16:01:41.932Z,31.20
2022-09-01T16:04:14.680Z,31.00
2022-09-01T16:06:45.533Z,30.90
2022-09-01T16:09:13.112Z,30.70
2022-09-01T16:11:41.402Z,30.60
2022-09-01T16:14:08.320Z,30.50
2022-09-01T16:17:03.357Z,30.40
2022-09-01T16:19:46.216Z,30.30
2022-09-01T16:22:35.952Z,30.10
2022-09-01T16:25:15.458Z,30.00
2022-09-01T16:27:45.923Z,29.90
2022-09-01T16:30:17.084Z,29.80
2022-09-01T16:32:48.300Z,29.70
2022-09-01T16:35:21.991Z,29.60
2022-09-01T16:38:08.603Z,29.50
2022-09-01T16:40:54.698Z,29.30
2022-09-01T16:43:38.118Z,29.10
2022-09-01T16:46:26.216Z,29.00
2022-09-01T16:49:31.290Z,28.90
2022-09-01T16:52:29.050Z,28.80
2022-09-01T16:55:05.828Z,28.70
2022-09-01T16:57:59.322Z,28.60
2022-09-01T17:00:44.340Z,28.40
2022-09-01T17:03:19.271Z,28.30
2022-09-01T17:05:47.069Z,28.10
2022-09-01T17:08:24.030Z,28.00
2022-09-01T17:10:57.454Z,27.90
2022-09-01T17:13:42.318Z,27.80
2022-09-01T17:16:21.775Z,27.60
2022-09-01T17:19:14.806Z,27.50
2022-09-01T17:22:03.031Z,27.40
2022-09-01T17:24:53.324Z,27.30
2022-09-01T17:27:48.187Z,27.10
2022-09-01T17:30:15.213Z,27.10
2022-09-01T17:33:13.066Z,26.90
2022-09-01T17:36:10.430Z,26.80
2022-09-01T17:38:48.181Z,26.70
2022-09-01T17:41:16.092Z,26.50
2022-09-01T17:44:13.881Z,26.40
2022-09-01T17:47:08.325Z,26.20
2022-09-01T17:49:50.794Z,26.10
2022-09-01T17:52:31.256Z,26.00
2022-09-01T17:55:01.116Z,25.90
2022-09-01T17:57:53.225Z,25.70
2022-09-01T18:00:27.497Z,25.60
2022-09-01T18:03:14.975Z,25.40
2022-09-01T18:05:59.292Z,25.30
2022-09-01T18:08:30.670Z,25.20
2022-09-01T18:11:08.370Z,25.10
2022-09-01T18:13:54.072Z,25.00
2022-09-01T18:16:30.789Z,24.90
2022-09-01T18:19:21.650Z,24.70
2022-09-01T18:21:56.511Z,24.60
2022-09-01T18:24:33.730Z,24.50
2022-09-01T18:27:01.805Z,24.30
2022-09-01T18:29:31.673Z,24.20
2022-09-01T18:32:22.520Z,24.10
2022-09-01T18:34:55.426Z,24.00
2022-09-01T18:37:44.615Z,23.80
2022-09-01T18:40:33.872Z,23.70
2022-09-01T18:43:14.279Z,23.60
2022-09-01T18:45:48.245Z,23.50
2022-09-01T18:48:21.334Z,23.40
2022-09-01T18:51:07.102Z,23.30
2022-09-01T18:53:59.492Z,23.20
2022-09-01T18:56:52.409Z,23.10
2022-09-01T18:59:37.381Z,22.90
2022-09-01T19:02:32.587Z,22.90
2022-09-01T19:05:38.336Z,22.80
2022-09-01T19:08:33.250Z,22.70
2022-09-01T19:11:27.022Z,22.60
2022-09-01T19:14:15.005Z,22.50
2022-09-01T19:17:08.561Z,22.40
2022-09-01T19:19:53.193Z,22.30
2022-09-01T19:22:48.744Z,22.20
2022-09-01T19:25:34.096Z,22.10
2022-09-01T19:28:39.786Z,22.10
2022-09-01T19:31:10.229Z,22.00
2022-09-01T19:33:44.314Z,21.90
2022-09-01T19:36:23.052Z,21.80
2022-09-01T19:38:52.654Z,21.80
2022-09-01T19:41:23.514Z,21.70
2022-09-01T19:44:02.579Z,21.70
2022-09-01T19:46:42.968Z,21.60
2022-09-01T19:49:30.653Z,21.60
2022-09-01T19:52:24.215Z,21.50
2022-09-01T19:55:10.066Z,21.40
2022-09-01T19:57:56.330Z,21.40
2022-09-01T20:00:52.466Z,21.30
2022-09-01T20:03:36.573Z,21.30
2022-09-01T20:06:11.046Z,21.20
2022-09-01T20:08:44.070Z,21.10
2022-09-01T20:11:16.868Z,21.10
2022-09-01T20:13:49.499Z,21.00
2022-09-01T20:16:40.219Z,21.00
2022-09-01T20:19:22.288Z,20.90
2022-09-01T20:21:49.489Z,20.90
2022-09-01T20:24:34.823Z,20.80
2022-09-01T20:27:23.285Z,20.80
2022-09-01T20:29:59.230Z,20.70
2022-09-01T20:32:44.156Z,20.60
2022-09-01T20:35:39.068Z,20.60
2022-09-01T20:38:30.744Z,20.50
2022-09-01T20:41:04.744Z,20.40
2022-09-01T20:43:39.776Z,20.40
2022-09-01T20:46:06.788Z,20.30
2022-09-01T20:48:38.978Z,20.30
2022-09-01T20:51:27.661Z,20.20
2022-09-01T20:54:14.475Z,20.20
2022-09-01T20:56:53.088Z,20.10
2022-09-01T20:59:53.808Z,20.00
2022-09-01T21:02:43.846Z,20.00
2022-09-01T21:05:29.350Z,20.00
2022-09-01T21:08:42.523Z,19.90
2022-09-01T21:11:58.530Z,19.90
2022-09-01T21:14:41.280Z,19.80
2022-09-01T21:17:13.646Z,19.80
2022-09-01T21:20:08.548Z,19.70
2022-09-01T21:22:35.546Z,19.60
2022-09-01T21:25:02.881Z,19.60
2022-09-01T21:27:42.108Z,19.50
2022-09-01T21:30:14.202Z,19.50
2022-09-01T21:32:41.782Z,19.40
2022-09-01T21:35:14.848Z,19.40
2022-09-01T21:37:41.847Z,19.30
2022-09-01T21:40:11.157Z,19.30
2022-09-01T21:42:56.221Z,19.30
2022-09-01T21:45:24.014Z,19.30
2022-09-01T21:47:52.111Z,19.20
2022-09-01T21:50:21.324Z,19.10
2022-09-01T21:52:48.770Z,19.10
2022-09-01T21:55:20.674Z,19.10
2022-09-01T21:57:52.972Z,19.00
2022-09-01T22:00:25.936Z,19.00
2022-09-01T22:02:53.874Z,19.00
2022-09-01T22:05:21.186Z,18.90
2022-09-01T22:07:48.459Z,18.90
2022-09-01T22:10:18.098Z,18.90
2022-09-01T22:12:46.649Z,18.90
2022-09-01T22:15:16.295Z,18.80
2022-09-01T22:17:43.930Z,18.70
2022-09-01T22:20:13.093Z,18.70
2022-09-01T22:22:39.867Z,18.70
2022-09-01T22:25:13.843Z,18.60
2022-09-01T22:27:40.912Z,18.60
2022-09-01T22:30:09.493Z,18.50
2022-09-01T22:32:37.948Z,18.50
2022-09-01T22:35:10.325Z,18.50
2022-09-01T22:37:38.395Z,18.40
2022-09-01T22:40:06.509Z,18.40
2022-09-01T22:42:33.884Z,18.40
2022-09-01T22:45:01.255Z,18.30
2022-09-01T22:47:28.240Z,18.30
2022-09-01T22:49:55.367Z,18.30
2022-09-01T22:52:22.430Z,18.30
2022-09-01T22:54:50.391Z,18.20
2022-09-01T22:57:17.186Z,18.20
2022-09-01T22:59:44.077Z,18.20
2022-09-01T23:02:11.265Z,18.10
2022-09-01T23:04:40.309Z,18.10
2022-09-01T23:07:07.490Z,18.10
2022-09-01T23:09:35.131Z,18.00
2022-09-01T23:12:02.030Z,18.00
2022-09-01T23:14:29.015Z,18.00
2022-09-01T23:16:56.435Z,17.90
2022-09-01T23:19:24.209Z,17.90
2022-09-01T23:21:52.566Z,17.90
2022-09-01T23:24:19.892Z,17.80
2022-09-01T23:26:47.644Z,17.80
2022-09-01T23:29:14.834Z,17.70
2022-09-01T23:31:43.664Z,17.70
2022-09-01T23:34:10.548Z,17.70
2022-09-01T23:36:37.423Z,17.70
2022-09-01T23:39:06.073Z,17.60
2022-09-01T23:41:35.825Z,17.60
2022-09-01T23:44:04.637Z,17.60
2022-09-01T23:46:35.099Z,17.60
2022-09-01T23:49:03.524Z,17.50
2022-09-01T23:51:30.634Z,17.50
2022-09-01T23:53:57.477Z,17.50
2022-09-01T23:56:26.296Z,17.40
2022-09-01T23:58:56.379Z,17.40
